Time;durP1;ratioP1;P1;durP2;ratioP2;P2;SDS_P1;SDS_P2;PMS_P1;PMS_P2;Temp;Humidity;BMP_temperature;BMP_pressure;BME280_temperature;BME280_humidity;BME280_pressure;Samples;Min_cycle;Max_cycle;Signal;HPM_P1;HPM_P2
2022/11/09 00:00:27;;;;;;;2.67;2.00;;;;;;;12.05;68.35;98050.94;4220029;28;20040;-73
2022/11/09 00:02:27;;;;;;;4.03;2.00;;;;;;;12.13;67.64;98062.81;4219269;28;20134;-73
2022/11/09 00:04:27;;;;;;;3.08;1.80;;;;;;;12.20;68.13;98055.28;4219573;27;20122;-73
2022/11/09 00:06:29;;;;;;;3.15;2.28;;;;;;;12.21;67.43;98053.28;4218991;28;20102;-73
2022/11/09 00:08:29;;;;;;;4.15;2.22;;;;;;;12.15;68.08;98049.31;4216546;28;20179;-73
2022/11/09 00:10:30;;;;;;;3.75;2.30;;;;;;;12.24;67.38;98056.03;4217844;28;20070;-73
2022/11/09 00:12:31;;;;;;;3.00;1.92;;;;;;;12.21;67.82;98047.75;4218199;28;20145;-73
2022/11/09 00:14:31;;;;;;;3.53;2.20;;;;;;;12.08;68.99;98052.91;4219150;28;20078;-73
2022/11/09 00:16:31;;;;;;;4.13;2.20;;;;;;;12.14;68.18;98045.78;4219815;28;20797;-73
2022/11/09 00:18:34;;;;;;;3.92;2.05;;;;;;;12.05;69.33;98048.16;4220135;28;20047;-73
2022/11/09 00:20:34;;;;;;;3.22;2.22;;;;;;;12.01;69.31;98050.94;4219915;28;20063;-73
2022/11/09 00:22:35;;;;;;;3.55;2.40;;;;;;;12.01;69.42;98048.19;4219597;28;20230;-73
2022/11/09 00:24:35;;;;;;;3.15;2.00;;;;;;;11.89;70.04;98051.34;4220237;28;20386;-73
2022/11/09 00:26:35;;;;;;;3.08;2.03;;;;;;;11.92;69.55;98045.03;4220062;28;20055;-73
2022/11/09 00:28:36;;;;;;;2.78;2.00;;;;;;;12.04;69.28;98049.34;4220253;28;20035;-73
2022/11/09 00:30:36;;;;;;;3.05;2.40;;;;;;;12.02;69.58;98054.50;4220976;28;20134;-73
2022/11/09 00:32:36;;;;;;;5.50;2.38;;;;;;;11.98;69.83;98042.63;4219050;28;20047;-73
2022/11/09 00:34:37;;;;;;;3.70;2.00;;;;;;;12.05;69.31;98054.50;4219858;28;20047;-73
2022/11/09 00:36:37;;;;;;;2.90;2.17;;;;;;;12.03;69.33;98051.34;4220317;28;20565;-73
2022/11/09 00:38:41;;;;;;;2.85;2.40;;;;;;;12.01;69.76;98053.72;4220458;28;20111;-73
2022/11/09 00:40:41;;;;;;;3.53;2.13;;;;;;;12.07;69.79;98059.63;4219975;28;20558;-73
2022/11/09 00:42:42;;;;;;;3.05;2.03;;;;;;;12.06;69.72;98050.53;4217700;28;20483;-73
2022/11/09 00:44:42;;;;;;;3.03;2.10;;;;;;;12.04;70.08;98054.91;4220564;28;20058;-73
2022/11/09 00:46:42;;;;;;;3.80;2.05;;;;;;;12.08;69.87;98050.94;4219041;28;20062;-73
2022/11/09 00:48:44;;;;;;;3.38;2.25;;;;;;;12.09;69.82;98044.22;4219382;28;20044;-73
2022/11/09 00:50:55;;;;;;;4.68;2.22;;;;;;;12.15;69.70;98054.88;4219938;28;20048;-73
2022/11/09 00:52:55;;;;;;;4.10;2.45;;;;;;;12.20;69.35;98049.72;4218884;28;20067;-73
2022/11/09 00:54:55;;;;;;;4.35;2.30;;;;;;;12.21;70.02;98054.06;4219787;28;20403;-73
2022/11/09 00:56:55;;;;;;;3.97;2.20;;;;;;;12.17;70.03;98056.09;4219463;28;20044;-73
2022/11/09 00:58:56;;;;;;;3.88;2.35;;;;;;;12.12;70.10;98048.16;4218791;28;20044;-73
2022/11/09 01:00:58;;;;;;;4.00;2.35;;;;;;;12.07;70.34;98063.19;4219936;28;20059;-73
2022/11/09 01:02:58;;;;;;;3.63;2.33;;;;;;;12.03;70.73;98056.09;4220094;27;20043;-73
2022/11/09 01:04:58;;;;;;;4.15;2.30;;;;;;;11.95;71.48;98066.41;4219316;28;20326;-73
2022/11/09 01:06:59;;;;;;;3.08;2.10;;;;;;;11.93;71.33;98060.47;4219777;28;20487;-73
2022/11/09 01:08:59;;;;;;;3.45;2.50;;;;;;;11.94;71.66;98052.94;4219788;28;20043;-73
2022/11/09 01:11:05;;;;;;;2.65;2.22;;;;;;;11.90;71.74;98052.13;4219600;28;20384;-73
2022/11/09 01:13:06;;;;;;;2.97;2.15;;;;;;;11.88;72.01;98052.53;4218818;28;20050;-73
2022/11/09 01:15:07;;;;;;;2.97;2.22;;;;;;;11.86;72.19;98051.34;4219745;28;20131;-73
2022/11/09 01:17:07;;;;;;;3.67;2.42;;;;;;;11.82;72.34;98056.88;4219328;28;20083;-73
2022/11/09 01:19:08;;;;;;;4.22;2.20;;;;;;;11.80;72.68;98050.94;4218540;28;20075;-73
2022/11/09 01:21:12;;;;;;;3.08;2.25;;;;;;;11.82;72.69;98045.78;4219655;28;20442;-73
2022/11/09 01:23:14;;;;;;;3.75;2.50;;;;;;;11.79;72.76;98041.81;4219188;28;20051;-73
2022/11/09 01:25:14;;;;;;;3.50;2.55;;;;;;;11.77;73.06;98041.44;4218820;28;20100;-73
2022/11/09 01:27:15;;;;;;;3.63;2.33;;;;;;;11.80;73.33;98034.31;4218824;28;20051;-73
2022/11/09 01:29:15;;;;;;;3.60;2.60;;;;;;;11.78;73.32;98034.69;4219278;28;20463;-73
2022/11/09 01:31:17;;;;;;;2.83;2.20;;;;;;;11.79;74.04;98030.72;4219565;28;20224;-73
2022/11/09 01:33:18;;;;;;;4.30;2.75;;;;;;;11.78;73.73;98029.16;4218531;28;20056;-73
2022/11/09 01:35:18;;;;;;;3.88;2.28;;;;;;;11.75;74.10;98021.63;4218745;28;20135;-73
2022/11/09 01:37:18;;;;;;;3.58;2.28;;;;;;;11.80;74.36;98029.56;4218619;28;20403;-73
2022/11/09 01:39:19;;;;;;;4.38;2.20;;;;;;;11.77;74.20;98018.47;4220530;28;20491;-73
2022/11/09 01:41:25;;;;;;;5.00;2.17;;;;;;;11.80;74.39;98015.72;4218995;28;20047;-73
2022/11/09 01:43:26;;;;;;;4.38;2.35;;;;;;;11.75;74.19;98007.78;4218678;28;20245;-73
2022/11/09 01:45:29;;;;;;;3.47;2.30;;;;;;;11.75;75.54;98012.50;4219403;28;20072;-73
2022/11/09 01:47:29;;;;;;;;;;;;;;;11.68;74.83;98009.75;4219477;28;20476;-73
2022/11/09 01:50:01;;;;;;;3.50;2.25;;;;;;;11.61;75.54;98012.53;4219282;28;19959;-73
2022/11/09 01:52:14;;;;;;;3.20;2.37;;;;;;;11.57;75.93;98031.13;4183282;28;20047;-73
2022/11/09 01:54:18;;;;;;;;;;;;;;;11.54;75.98;98035.47;4217539;28;20032;-73
2022/11/09 01:56:19;;;;;;;4.47;2.30;;;;;;;11.55;76.79;98023.22;4218791;28;20003;-73
2022/11/09 01:58:24;;;;;;;3.78;2.30;;;;;;;11.51;76.72;98019.66;4219565;28;20066;-73
2022/11/09 02:00:25;;;;;;;3.65;2.40;;;;;;;11.49;77.02;98008.16;4219183;28;20121;-73
2022/11/09 02:02:25;;;;;;;5.32;2.25;;;;;;;11.46;77.05;98009.75;4218193;28;20061;-73
2022/11/09 02:04:29;;;;;;;5.60;2.40;;;;;;;11.45;77.41;98004.63;4219834;28;20372;-73
2022/11/09 02:06:31;;;;;;;5.22;2.30;;;;;;;11.43;77.73;98015.31;4218742;28;20679;-73
2022/11/09 02:08:32;;;;;;;3.85;2.55;;;;;;;11.43;77.58;98018.88;4219599;28;20050;-73
2022/11/09 02:10:50;;;;;;;3.35;2.13;;;;;;;11.43;77.93;98020.84;4221519;28;20036;-73
2022/11/09 02:12:53;;;;;;;4.40;2.30;;;;;;;11.42;77.72;98016.47;4221920;28;20060;-73
2022/11/09 02:14:55;;;;;;;4.20;2.50;;;;;;;11.44;78.45;98019.66;4222631;28;20085;-73
2022/11/09 02:16:55;;;;;;;7.00;2.67;;;;;;;11.45;78.40;98024.00;4221580;28;20043;-73
2022/11/09 02:18:57;;;;;;;3.30;2.35;;;;;;;11.43;78.23;98031.94;4222087;28;20138;-73
2022/11/09 02:20:57;;;;;;;4.05;2.35;;;;;;;11.50;78.26;98026.38;4222335;28;20048;-73
2022/11/09 02:22:58;;;;;;;2.83;2.28;;;;;;;11.54;78.58;98019.66;4222054;28;20040;-73
2022/11/09 02:24:58;;;;;;;3.72;2.35;;;;;;;11.56;77.75;98015.69;4222126;28;20554;-73
2022/11/09 02:26:59;;;;;;;3.47;1.98;;;;;;;11.52;78.27;98004.63;4221789;28;20047;-73
2022/11/09 02:29:04;;;;;;;3.33;2.10;;;;;;;11.51;77.68;98008.59;4222550;28;20036;-73
2022/11/09 02:31:07;;;;;;;3.95;2.30;;;;;;;11.46;78.26;98006.19;4221862;28;20473;-73
2022/11/09 02:33:07;;;;;;;3.75;2.28;;;;;;;11.43;78.10;98015.31;4220254;28;20036;-73
2022/11/09 02:35:08;;;;;;;5.15;2.55;;;;;;;11.43;78.78;98020.84;4221505;28;20105;-73
2022/11/09 02:37:33;;;;;;;4.65;2.92;;;;;;;11.42;79.18;98013.69;4221763;28;20046;-73
2022/11/09 02:39:34;;;;;;;5.03;2.35;;;;;;;11.44;78.91;98014.91;4222118;28;20203;-73
2022/11/09 02:41:42;;;;;;;3.35;2.20;;;;;;;11.41;78.49;98020.44;4222127;28;20039;-73
2022/11/09 02:43:43;;;;;;;4.03;2.65;;;;;;;11.42;79.15;98011.75;4220937;28;20042;-73
2022/11/09 02:45:43;;;;;;;4.35;2.20;;;;;;;11.43;79.11;98027.19;4221450;28;20475;-73
2022/11/09 02:47:44;;;;;;;8.25;2.40;;;;;;;11.50;78.56;98026.38;4221407;28;20145;-73
2022/11/09 02:49:44;;;;;;;5.80;2.75;;;;;;;11.45;78.78;98021.22;4221790;28;20036;-73
2022/11/09 02:51:45;;;;;;;3.10;2.40;;;;;;;11.40;78.44;98005.78;4222286;28;20039;-73
2022/11/09 02:53:45;;;;;;;5.57;2.55;;;;;;;11.45;78.75;98016.47;4221248;28;20447;-73
2022/11/09 02:55:45;;;;;;;3.65;2.60;;;;;;;11.44;79.07;98019.66;4222105;28;20047;-73
2022/11/09 02:57:46;;;;;;;6.07;2.85;;;;;;;11.47;78.92;98019.66;4221522;28;20399;-73
2022/11/09 02:59:46;;;;;;;3.65;2.50;;;;;;;11.54;79.04;98041.81;4221198;28;20353;-73
2022/11/09 03:01:46;;;;;;;3.38;2.45;;;;;;;11.49;78.93;98038.63;4222015;28;20564;-73
2022/11/09 03:03:46;;;;;;;6.78;2.65;;;;;;;11.46;80.48;98044.97;4221803;27;20124;-73
2022/11/09 03:05:47;;;;;;;4.30;2.70;;;;;;;11.40;81.74;98049.31;4221305;28;20052;-73
2022/11/09 03:07:47;;;;;;;4.60;3.30;;;;;;;11.29;83.09;98048.50;4221811;28;20460;-73
2022/11/09 03:09:47;;;;;;;4.20;2.88;;;;;;;11.26;85.51;98055.63;4221565;28;20139;-73
2022/11/09 03:11:49;;;;;;;4.68;3.00;;;;;;;11.25;85.88;98057.63;4221415;28;20078;-73
2022/11/09 03:13:49;;;;;;;5.82;3.00;;;;;;;11.16;86.43;98070.22;4220634;28;20097;-73
2022/11/09 03:15:50;;;;;;;5.15;3.20;;;;;;;11.12;87.02;98069.44;4220970;28;20044;-73
2022/11/09 03:17:50;;;;;;;5.68;3.17;;;;;;;11.04;88.93;98063.09;4221346;28;20044;-73
2022/11/09 03:19:51;;;;;;;7.13;3.42;;;;;;;11.03;88.19;98055.19;4221238;28;20479;-73
2022/11/09 03:21:51;;;;;;;4.20;2.97;;;;;;;10.99;88.66;98060.69;4221030;28;20051;-73
2022/11/09 03:23:52;;;;;;;4.88;3.22;;;;;;;10.95;88.16;98051.59;4220625;28;20035;-73
2022/11/09 03:25:53;;;;;;;3.90;3.05;;;;;;;10.91;88.29;98051.56;4220848;28;20050;-73
2022/11/09 03:28:01;;;;;;;6.07;3.80;;;;;;;10.87;89.67;98050.00;4221421;28;20051;-73
2022/11/09 03:30:01;;;;;;;5.03;3.80;;;;;;;10.84;89.99;98047.97;4220772;28;20391;-73
2022/11/09 03:32:01;;;;;;;4.95;3.70;;;;;;;10.78;91.04;98044.81;4221355;28;20540;-73
2022/11/09 03:34:02;;;;;;;4.75;4.03;;;;;;;10.74;91.81;98049.53;4220697;28;20038;-73
2022/11/09 03:36:02;;;;;;;5.53;3.60;;;;;;;10.72;91.17;98051.13;4220754;28;20436;-73
2022/11/09 03:38:03;;;;;;;5.68;3.90;;;;;;;10.68;92.03;98045.59;4221856;27;20114;-73
2022/11/09 03:40:04;;;;;;;7.85;4.68;;;;;;;10.66;92.30;98047.91;4220873;28;20036;-73
2022/11/09 03:42:04;;;;;;;6.00;3.85;;;;;;;10.64;91.54;98053.06;4221121;28;20027;-73
2022/11/09 03:44:05;;;;;;;4.50;3.40;;;;;;;10.64;92.98;98050.28;4220535;28;20202;-73
2022/11/09 03:46:05;;;;;;;6.18;3.42;;;;;;;10.62;92.95;98052.66;4219230;28;20468;-73
2022/11/09 03:48:05;;;;;;;5.75;3.65;;;;;;;10.57;94.43;98044.72;4220969;28;20039;-73
2022/11/09 03:50:07;;;;;;;5.05;3.55;;;;;;;10.58;92.29;98052.63;4220715;28;20467;-73
2022/11/09 03:52:07;;;;;;;5.35;3.65;;;;;;;10.56;93.64;98054.19;4220897;28;20106;-73
2022/11/09 03:54:07;;;;;;;5.15;3.50;;;;;;;10.57;92.48;98053.81;4220461;28;20082;-73
2022/11/09 03:56:07;;;;;;;5.65;3.60;;;;;;;10.53;92.86;98050.25;4220006;28;20036;-73
2022/11/09 03:58:10;;;;;;;5.15;3.63;;;;;;;10.54;93.81;98051.84;4220617;28;20135;-73
2022/11/09 04:00:13;;;;;;;3.92;3.33;;;;;;;10.55;94.01;98058.94;4219499;28;20027;-73
2022/11/09 04:02:13;;;;;;;4.75;3.58;;;;;;;10.57;95.43;98062.09;4220200;28;20027;-73
2022/11/09 04:04:13;;;;;;;4.18;3.08;;;;;;;10.58;95.72;98062.91;4219978;27;20073;-73
2022/11/09 04:06:14;;;;;;;4.05;3.17;;;;;;;10.59;96.64;98067.25;4219490;28;20371;-73
2022/11/09 04:08:14;;;;;;;7.25;3.78;;;;;;;10.52;94.91;98054.19;4220142;28;20054;-73
2022/11/09 04:10:15;;;;;;;4.30;3.33;;;;;;;10.58;95.67;98065.66;4218349;28;20102;-73
2022/11/09 04:12:15;;;;;;;5.30;3.17;;;;;;;10.55;95.43;98050.66;4220683;28;20111;-73
2022/11/09 04:14:15;;;;;;;4.57;3.05;;;;;;;10.58;95.50;98054.59;4219345;28;20154;-73
2022/11/09 04:16:16;;;;;;;3.17;2.80;;;;;;;10.63;95.70;98065.31;4219565;28;20356;-73
2022/11/09 04:18:16;;;;;;;6.97;4.28;;;;;;;10.61;95.46;98067.69;4220624;28;20354;-73
2022/11/09 04:20:16;;;;;;;5.45;3.13;;;;;;;10.61;94.82;98067.69;4220154;28;20023;-73
2022/11/09 04:22:17;;;;;;;3.85;2.97;;;;;;;10.61;95.41;98071.22;4219954;28;20027;-73
2022/11/09 04:24:17;;;;;;;6.05;2.78;;;;;;;10.63;95.62;98065.31;4219571;28;20052;-73
2022/11/09 04:26:17;;;;;;;4.03;3.15;;;;;;;10.66;95.33;98062.53;4220475;28;20032;-73
2022/11/09 04:28:18;;;;;;;3.38;2.88;;;;;;;10.65;95.48;98068.47;4219700;28;20039;-73
2022/11/09 04:30:18;;;;;;;4.38;3.08;;;;;;;10.64;96.16;98064.91;4219947;28;20483;-73
2022/11/09 04:32:18;;;;;;;4.38;2.97;;;;;;;10.62;96.10;98063.72;4220127;28;20483;-73
2022/11/09 04:34:19;;;;;;;3.42;2.70;;;;;;;10.60;94.78;98066.88;4218290;28;20027;-73
2022/11/09 04:36:19;;;;;;;4.00;3.60;;;;;;;10.59;95.61;98058.94;4220022;28;20028;-73
2022/11/09 04:38:20;;;;;;;5.78;2.88;;;;;;;10.64;95.41;98059.38;4221103;27;20320;-73
2022/11/09 04:40:22;;;;;;;3.75;2.83;;;;;;;10.61;94.21;98049.09;4219758;28;20110;-73
2022/11/09 04:42:22;;;;;;;4.47;2.95;;;;;;;10.62;93.98;98047.13;4218387;28;20082;-73
2022/11/09 04:44:22;;;;;;;3.78;2.80;;;;;;;10.63;93.40;98045.94;4218704;28;20466;-73
2022/11/09 04:46:23;;;;;;;7.03;3.25;;;;;;;10.66;94.10;98040.41;4220207;28;20090;-73
2022/11/09 04:48:23;;;;;;;4.07;2.80;;;;;;;10.62;94.76;98045.16;4219789;28;20071;-73
2022/11/09 04:50:23;;;;;;;3.95;3.13;;;;;;;10.59;94.49;98034.88;4219969;28;20100;-73
2022/11/09 04:52:24;;;;;;;5.03;2.70;;;;;;;10.59;94.74;98026.56;4219797;28;20051;-73
2022/11/09 04:54:24;;;;;;;4.03;2.30;;;;;;;10.63;94.91;98021.03;4219203;28;20048;-73
2022/11/09 04:56:24;;;;;;;4.53;2.85;;;;;;;10.58;94.66;98010.34;4218743;28;20078;-74
2022/11/09 04:58:25;;;;;;;4.32;2.50;;;;;;;10.58;94.99;98002.03;4218964;28;20097;-73
2022/11/09 05:00:26;;;;;;;2.72;2.28;;;;;;;10.58;95.39;97997.31;4219631;28;21676;-73
2022/11/09 05:02:26;;;;;;;3.03;2.30;;;;;;;10.59;93.90;98004.44;4219623;28;20035;-73
2022/11/09 05:04:26;;;;;;;2.72;2.33;;;;;;;10.60;94.07;98005.22;4219239;28;20035;-74
2022/11/09 05:06:32;;;;;;;2.85;2.17;;;;;;;10.58;94.47;97991.78;4219383;28;20035;-73
2022/11/09 05:08:33;;;;;;;2.97;2.17;;;;;;;10.56;94.45;97991.38;4219769;28;20047;-73
2022/11/09 05:10:34;;;;;;;2.90;1.98;;;;;;;10.55;94.20;97986.25;4218455;28;20092;-73
2022/11/09 05:12:35;;;;;;;2.20;1.70;;;;;;;10.56;95.31;97980.31;4218283;28;20269;-73
2022/11/09 05:14:36;;;;;;;2.47;1.80;;;;;;;10.52;95.33;97978.72;4218218;28;20456;-73
2022/11/09 05:16:37;;;;;;;2.92;2.40;;;;;;;10.50;95.46;97968.03;4217284;28;20074;-73
2022/11/09 05:18:37;;;;;;;2.50;2.10;;;;;;;10.47;94.27;97966.06;4219323;28;20040;-73
2022/11/09 05:20:37;;;;;;;2.55;2.00;;;;;;;10.49;94.25;97974.75;4219615;28;20139;-73
2022/11/09 05:24:58;;;;;;;3.75;2.00;;;;;;;10.47;95.00;97973.56;4218609;28;20134;-73
2022/11/09 05:26:58;;;;;;;2.78;1.85;;;;;;;10.53;94.52;97963.72;4219413;28;20043;-73
2022/11/09 05:29:01;;;;;;;2.90;1.77;;;;;;;10.51;93.20;97949.47;4218642;28;20057;-73
2022/11/09 05:31:01;;;;;;;3.15;1.85;;;;;;;10.52;93.97;97957.38;4219253;28;20521;-73
2022/11/09 05:33:02;;;;;;;2.67;1.95;;;;;;;10.55;93.63;97956.59;4219021;28;20046;-74
2022/11/09 05:35:02;;;;;;;2.25;1.85;;;;;;;10.60;93.41;97934.09;4219025;28;20043;-73
2022/11/09 05:37:03;;;;;;;2.15;1.70;;;;;;;10.58;92.71;97919.06;4201837;28;20387;-73
2022/11/09 05:39:03;;;;;;;4.03;2.17;;;;;;;10.57;93.67;97918.25;4219681;28;20051;-73
2022/11/09 05:41:03;;;;;;;3.65;1.70;;;;;;;10.64;92.51;97920.25;4219239;28;20357;-73
2022/11/09 05:43:04;;;;;;;2.33;1.70;;;;;;;10.63;92.73;97930.53;4218442;28;20044;-73
2022/11/09 05:45:04;;;;;;;2.28;1.83;;;;;;;10.63;92.62;97947.13;4219723;28;20047;-73
2022/11/09 05:47:05;;;;;;;2.38;1.50;;;;;;;10.61;92.85;97945.97;4222475;28;20058;-73
2022/11/09 05:49:05;;;;;;;1.42;1.30;;;;;;;10.65;92.02;97950.31;4223127;28;20398;-73
2022/11/09 05:51:07;;;;;;;4.30;1.88;;;;;;;10.64;91.45;97961.75;4221898;28;20134;-73
2022/11/09 05:53:09;;;;;;;2.10;1.55;;;;;;;10.60;91.67;97956.22;4221643;28;20044;-73
2022/11/09 05:55:10;;;;;;;2.03;1.43;;;;;;;10.65;92.86;97963.34;4220952;27;20358;-73
2022/11/09 05:57:10;;;;;;;2.83;1.35;;;;;;;10.65;92.80;97960.56;4221987;28;20644;-73
2022/11/09 05:59:10;;;;;;;2.20;1.67;;;;;;;10.65;92.49;97977.97;4221706;28;20131;-73
2022/11/09 06:01:14;;;;;;;2.20;1.30;;;;;;;10.66;92.95;97985.06;4222105;28;20039;-73
2022/11/09 06:03:14;;;;;;;2.20;1.45;;;;;;;10.71;93.28;97980.38;4221097;28;20279;-73
2022/11/09 06:05:15;;;;;;;1.23;1.10;;;;;;;10.74;91.59;97971.28;4167215;27;20418;-73
2022/11/09 06:07:15;;;;;;;1.30;1.10;;;;;;;10.77;92.18;97987.91;4226368;27;20044;-73
2022/11/09 06:09:16;;;;;;;1.88;1.25;;;;;;;10.81;91.91;97983.16;4221321;28;20588;-73
2022/11/09 06:11:16;;;;;;;1.60;1.10;;;;;;;10.86;91.96;97991.09;4221894;28;20047;-73
2022/11/09 06:13:16;;;;;;;2.53;1.60;;;;;;;10.90;93.18;98000.16;4221501;28;20071;-73
2022/11/09 06:15:16;;;;;;;1.35;1.13;;;;;;;10.90;92.65;98002.94;4222271;28;20148;-73
2022/11/09 06:17:17;;;;;;;1.92;1.52;;;;;;;10.87;93.27;98009.25;4222193;28;20126;-73
2022/11/09 06:19:17;;;;;;;1.85;1.25;;;;;;;10.81;94.05;98015.56;4221909;28;20122;-73
2022/11/09 06:21:17;;;;;;;1.75;1.30;;;;;;;10.93;93.05;98031.84;4222458;28;20035;-73
2022/11/09 06:23:18;;;;;;;1.60;1.20;;;;;;;10.89;92.66;98017.16;4221861;28;20052;-73
2022/11/09 06:25:19;;;;;;;1.38;1.20;;;;;;;10.89;92.10;98025.47;4221975;28;20063;-73
2022/11/09 06:27:20;;;;;;;1.42;1.13;;;;;;;10.87;93.35;98027.84;4220797;28;20048;-73
2022/11/09 06:29:20;;;;;;;2.28;1.40;;;;;;;10.85;92.87;98031.00;4220918;28;20089;-73
2022/11/09 06:31:20;;;;;;;2.88;1.30;;;;;;;10.86;92.89;98023.50;4221914;28;20476;-73
2022/11/09 06:33:20;;;;;;;1.40;1.30;;;;;;;10.85;92.98;98049.59;4220938;28;20044;-73
2022/11/09 06:35:21;;;;;;;2.42;1.52;;;;;;;10.84;93.09;98042.44;4220745;28;20050;-73
2022/11/09 06:37:21;;;;;;;2.40;1.55;;;;;;;10.82;93.12;98042.84;4222224;27;20394;-73
2022/11/09 06:39:22;;;;;;;2.15;1.50;;;;;;;10.81;93.36;98023.88;4221340;27;20275;-73
2022/11/09 06:41:22;;;;;;;2.10;1.70;;;;;;;10.79;94.02;98029.00;4221752;28;20044;-73
2022/11/09 06:43:23;;;;;;;2.70;1.60;;;;;;;10.78;92.46;98042.06;4220602;28;20970;-73
2022/11/09 06:45:24;;;;;;;1.73;1.20;;;;;;;10.73;91.54;98047.16;4221232;28;20514;-73
2022/11/09 06:47:27;;;;;;;2.35;1.20;;;;;;;10.71;93.78;98042.03;4219658;28;20131;-73
2022/11/09 06:49:27;;;;;;;2.03;1.13;;;;;;;10.71;94.26;98042.03;4219815;28;20522;-73
2022/11/09 06:51:27;;;;;;;2.33;1.40;;;;;;;10.70;94.12;98032.16;4221391;28;20075;-73
2022/11/09 06:53:29;;;;;;;1.73;1.20;;;;;;;10.70;95.41;98032.16;4220336;28;20062;-74
2022/11/09 06:55:32;;;;;;;1.60;1.20;;;;;;;10.67;94.79;98042.03;4220883;28;20058;-73
2022/11/09 06:57:32;;;;;;;1.83;1.25;;;;;;;10.67;95.73;98043.97;4220676;28;20429;-74
2022/11/09 06:59:33;;;;;;;1.85;1.23;;;;;;;10.69;94.97;98036.88;4222335;28;20122;-73
2022/11/09 07:01:34;;;;;;;1.85;1.20;;;;;;;10.74;95.95;98052.31;4220979;28;20130;-73
2022/11/09 07:03:34;;;;;;;2.30;1.35;;;;;;;10.92;96.75;98044.88;4221792;27;20538;-73
2022/11/09 07:05:38;;;;;;;1.63;1.30;;;;;;;10.94;94.70;98048.03;4222148;28;20396;-73
2022/11/09 07:07:39;;;;;;;4.93;1.55;;;;;;;10.97;95.88;98061.09;4221023;28;20126;-73
2022/11/09 07:09:39;;;;;;;1.40;1.10;;;;;;;10.92;94.08;98053.19;4221500;28;20158;-73
2022/11/09 07:11:39;;;;;;;2.25;1.30;;;;;;;10.95;94.80;98055.16;4221835;28;20048;-73
2022/11/09 07:13:40;;;;;;;2.38;1.40;;;;;;;10.94;96.33;98039.75;4219013;28;20242;-73
2022/11/09 07:15:40;;;;;;;1.30;1.20;;;;;;;10.92;96.52;98041.28;4220656;28;20081;-73
2022/11/09 07:17:40;;;;;;;2.33;1.23;;;;;;;11.01;96.92;98032.66;4220911;28;20475;-73
2022/11/09 07:19:41;;;;;;;2.00;1.40;;;;;;;11.04;96.16;98034.63;4220746;28;20293;-73
2022/11/09 07:21:41;;;;;;;1.80;1.40;;;;;;;11.11;96.67;98037.41;4219923;28;20101;-74
2022/11/09 07:23:42;;;;;;;3.90;1.27;;;;;;;11.12;95.54;98028.69;4220413;28;20040;-73
2022/11/09 07:25:42;;;;;;;1.83;1.30;;;;;;;11.16;95.13;98037.78;4221179;28;20039;-73
2022/11/09 07:27:43;;;;;;;3.00;1.50;;;;;;;11.19;96.03;98037.03;4221450;28;20418;-73
2022/11/09 07:29:43;;;;;;;1.58;1.40;;;;;;;11.17;94.69;98041.34;4221187;28;20044;-73
2022/11/09 07:31:44;;;;;;;6.93;1.85;;;;;;;11.13;96.08;98041.34;4221014;28;20051;-73
2022/11/09 07:33:44;;;;;;;1.58;1.38;;;;;;;11.14;96.04;98025.53;4220915;28;20518;-73
2022/11/09 07:35:45;;;;;;;1.73;1.38;;;;;;;11.11;95.39;98029.91;4220955;28;20097;-73
2022/11/09 07:37:45;;;;;;;2.92;2.00;;;;;;;11.11;95.75;98027.13;4222273;27;20027;-73
2022/11/09 07:39:46;;;;;;;2.10;1.83;;;;;;;11.16;95.80;98029.50;4221268;28;20222;-73
2022/11/09 07:41:47;;;;;;;2.42;1.48;;;;;;;11.23;95.17;98043.34;4221138;28;20480;-73
2022/11/09 07:43:47;;;;;;;2.05;1.52;;;;;;;11.23;93.77;98040.59;4219987;28;20140;-73
2022/11/09 07:45:48;;;;;;;2.67;1.85;;;;;;;11.33;94.44;98050.09;4220631;28;20552;-73
2022/11/09 07:47:48;;;;;;;1.25;1.15;;;;;;;11.33;94.41;98041.00;4221340;28;20421;-73
2022/11/09 07:49:48;;;;;;;1.83;1.35;;;;;;;11.33;94.88;98063.16;4220999;28;20036;-73
2022/11/09 07:51:49;;;;;;;1.75;1.40;;;;;;;11.33;93.65;98046.53;4220361;28;20040;-73
2022/11/09 07:53:49;;;;;;;1.30;1.20;;;;;;;11.35;94.08;98028.34;4220407;28;20051;-73
2022/11/09 07:55:57;;;;;;;2.22;1.30;;;;;;;11.40;93.65;98038.22;4220433;28;20329;-73
2022/11/09 07:57:59;;;;;;;2.95;1.25;;;;;;;11.39;93.09;98036.66;4220497;28;20032;-73
2022/11/09 08:00:00;;;;;;;1.52;1.30;;;;;;;11.42;93.14;98030.31;4219887;28;20207;-73
2022/11/09 08:02:00;;;;;;;1.60;1.38;;;;;;;11.47;93.05;98027.16;4221181;28;20043;-73
2022/11/09 08:04:00;;;;;;;1.42;1.23;;;;;;;11.42;92.63;98033.91;4221095;27;20314;-73
2022/11/09 08:06:01;;;;;;;2.22;1.30;;;;;;;11.40;93.20;98039.03;4201812;28;20044;-73
2022/11/09 08:08:05;;;;;;;1.60;1.30;;;;;;;11.41;92.72;98028.72;4219788;28;20027;-73
2022/11/09 08:10:05;;;;;;;1.90;1.48;;;;;;;11.41;92.35;98032.28;4221042;28;20070;-73
2022/11/09 08:12:06;;;;;;;1.65;1.33;;;;;;;11.41;92.32;98021.22;4220939;28;20019;-73
2022/11/09 08:14:06;;;;;;;2.55;1.42;;;;;;;11.41;92.11;98031.50;4219218;28;20035;-73
2022/11/09 08:16:07;;;;;;;1.90;1.42;;;;;;;11.43;91.67;98041.03;4220314;28;20031;-73
2022/11/09 08:18:15;;;;;;;1.60;1.40;;;;;;;11.44;92.32;98034.28;4220415;28;20067;-73
2022/11/09 08:20:16;;;;;;;1.85;1.40;;;;;;;11.51;91.89;98028.75;4220445;28;20034;-73
2022/11/09 08:22:16;;;;;;;1.40;1.30;;;;;;;11.48;91.48;98031.50;4219987;28;20035;-73
2022/11/09 08:24:17;;;;;;;1.60;1.50;;;;;;;11.46;92.01;98040.22;4219773;28;20352;-73
2022/11/09 08:26:17;;;;;;;1.67;1.30;;;;;;;11.47;92.32;98025.19;4220578;28;20667;-73
2022/11/09 08:28:17;;;;;;;1.67;1.25;;;;;;;11.50;91.90;98031.91;4220129;28;20361;-73
2022/11/09 08:30:20;;;;;;;2.42;1.60;;;;;;;11.53;91.83;98045.00;4220018;28;20494;-73
2022/11/09 08:32:20;;;;;;;2.85;1.40;;;;;;;11.58;91.34;98025.19;4220009;28;20387;-73
2022/11/09 08:34:21;;;;;;;1.63;1.35;;;;;;;11.56;90.51;98033.09;4219675;28;20290;-73
2022/11/09 08:36:21;;;;;;;2.20;1.55;;;;;;;11.64;90.95;98023.59;4219292;28;20428;-73
2022/11/09 08:38:22;;;;;;;2.40;1.50;;;;;;;11.63;90.68;98016.47;4220431;28;20039;-73
2022/11/09 08:40:25;;;;;;;1.63;1.30;;;;;;;11.60;90.98;98020.06;4220119;28;20418;-72
2022/11/09 08:42:25;;;;;;;1.63;1.30;;;;;;;11.61;90.72;98013.31;4220093;28;20047;-73
2022/11/09 08:44:25;;;;;;;3.28;1.40;;;;;;;11.66;90.19;98017.66;4219166;28;20503;-73
2022/11/09 08:46:26;;;;;;;4.22;1.42;;;;;;;11.66;90.50;98020.44;4219912;28;20092;-73
2022/11/09 08:48:26;;;;;;;1.55;1.25;;;;;;;11.71;90.76;97995.09;4219907;28;20044;-73
2022/11/09 08:50:28;;;;;;;1.50;1.20;;;;;;;11.76;90.22;98005.81;4219862;28;20036;-73
2022/11/09 08:52:29;;;;;;;2.00;1.42;;;;;;;11.77;90.52;98004.59;4219587;28;20047;-73
2022/11/09 08:54:30;;;;;;;1.90;1.38;;;;;;;11.78;90.31;98009.75;4219649;28;20046;-73
2022/11/09 08:56:30;;;;;;;1.70;1.30;;;;;;;11.74;90.57;97997.88;4220008;28;20483;-73
2022/11/09 08:58:31;;;;;;;2.35;1.50;;;;;;;11.86;89.79;97985.63;4219790;28;20043;-73
2022/11/09 09:00:31;;;;;;;2.55;1.42;;;;;;;11.85;90.71;97991.56;4219943;28;20555;-73
2022/11/09 09:02:31;;;;;;;1.90;1.40;;;;;;;11.89;89.72;97993.13;4219434;28;20259;-73
2022/11/09 09:04:32;;;;;;;1.80;1.33;;;;;;;11.90;89.29;97977.28;4215184;28;20047;-73
2022/11/09 09:06:32;;;;;;;1.48;1.30;;;;;;;11.87;90.02;97980.88;4215735;28;20044;-73
2022/11/09 09:08:33;;;;;;;2.13;1.60;;;;;;;11.93;90.64;97962.66;4217025;28;20191;-73
2022/11/09 09:10:37;;;;;;;1.33;1.10;;;;;;;11.88;89.71;97974.91;4217197;28;20051;-73
2022/11/09 09:12:37;;;;;;;2.08;1.80;;;;;;;11.98;91.59;97992.72;4215194;28;20145;-73
2022/11/09 09:14:37;;;;;;;2.05;1.58;;;;;;;12.08;90.68;97997.44;4212555;28;20366;-73
2022/11/09 09:16:38;;;;;;;9.63;1.48;;;;;;;12.14;90.75;98004.16;4218426;28;20047;-73
2022/11/09 09:18:38;;;;;;;3.20;1.40;;;;;;;12.19;90.72;98006.53;4216046;28;20608;-73
2022/11/09 09:20:38;;;;;;;1.73;1.38;;;;;;;12.15;89.67;97997.44;4215159;28;20127;-73
2022/11/09 09:22:39;;;;;;;2.35;1.58;;;;;;;12.24;90.32;98008.88;4214762;28;20135;-73
2022/11/09 09:24:39;;;;;;;1.67;1.40;;;;;;;12.31;90.49;98010.84;4216858;28;20202;-73
2022/11/09 09:26:39;;;;;;;2.03;1.55;;;;;;;12.34;89.92;98012.84;4212227;28;20071;-73
2022/11/09 09:28:40;;;;;;;1.48;1.25;;;;;;;12.42;90.39;98019.16;4214732;28;20051;-73
2022/11/09 09:30:40;;;;;;;3.47;1.38;;;;;;;12.46;89.85;98031.03;4216592;28;20118;-73
2022/11/09 09:32:40;;;;;;;2.67;1.60;;;;;;;12.46;90.38;98017.16;4218416;28;20068;-73